Time;durP1;ratioP1;P1;durP2;ratioP2;P2;SDS_P1;SDS_P2;PMS_P1;PMS_P2;Temp;Humidity;BMP_temperature;BMP_pressure;BME280_temperature;BME280_humidity;BME280_pressure;Samples;Min_cycle;Max_cycle;Signal;HPM_P1;HPM_P2
2022/01/14 01:24:46;;;;;;;39.93;16.23;;;;;;;;;;4735696;30;20553;-88
2022/01/14 01:34:21;;;;;;;46.40;18.07;;;;;;;;;;4665165;30;20625;-88
2022/01/14 01:37:25;;;;;;;43.63;17.77;;;;;;;;;;4651385;30;20645;-88
2022/01/14 01:40:30;;;;;;;47.10;19.07;;;;;;;;;;4704101;30;20918;-88
2022/01/14 01:43:34;;;;;;;41.60;17.73;;;;;;;;;;4714086;30;20585;-88
2022/01/14 01:46:41;;;;;;;41.37;17.40;;;;;;;;;;4713182;30;20664;-88
2022/01/14 01:49:45;;;;;;;93.17;18.50;;;;;;;;;;4713728;30;20668;-88
2022/01/14 01:52:49;;;;;;;59.60;18.57;;;;;;;;;;4713981;30;20629;-88
2022/01/14 01:55:53;;;;;;;43.87;16.90;;;;;;;;;;4723745;30;20664;-88
2022/01/14 01:58:57;;;;;;;53.00;16.90;;;;;;;;;;4714072;30;20624;-88
2022/01/14 02:02:02;;;;;;;40.57;17.53;;;;;;;;;;4714044;30;20574;-88
2022/01/14 02:05:07;;;;;;;34.97;15.40;;;;;;;;;;4735244;30;21121;-88
2022/01/14 02:08:11;;;;;;;125.40;16.53;;;;;;;;;;4724936;30;20637;-88
2022/01/14 02:11:16;;;;;;;34.77;15.73;;;;;;;;;;4724697;30;20621;-88
2022/01/14 02:14:51;;;;;;;56.50;15.37;;;;;;;;;;4735351;30;20919;-88
2022/01/14 02:18:24;;;;;;;35.63;15.40;;;;;;;;;;4735195;30;20569;-88
2022/01/14 02:27:45;;;;;;;39.60;16.90;;;;;;;;;;4734738;30;20561;-88
2022/01/14 02:30:50;;;;;;;54.20;19.03;;;;;;;;;;4724711;30;21200;-88
2022/01/14 02:33:54;;;;;;;37.83;16.57;;;;;;;;;;4734748;30;20579;-88
2022/01/14 02:36:58;;;;;;;51.23;18.73;;;;;;;;;;4734779;30;20656;-88
2022/01/14 02:40:03;;;;;;;37.40;17.07;;;;;;;;;;4724556;30;20565;-88
2022/01/14 02:43:12;;;;;;;43.23;17.43;;;;;;;;;;4734526;30;20581;-88
2022/01/14 02:46:17;;;;;;;62.37;17.97;;;;;;;;;;4724465;30;20653;-88
2022/01/14 02:49:22;;;;;;;45.03;19.10;;;;;;;;;;4724581;30;20558;-88
2022/01/14 02:52:42;;;;;;;41.87;18.03;;;;;;;;;;4734366;30;21002;-88
2022/01/14 02:55:46;;;;;;;40.17;18.30;;;;;;;;;;4734551;30;20653;-88
2022/01/14 02:58:51;;;;;;;36.67;15.97;;;;;;;;;;4725871;30;21120;-88
2022/01/14 03:01:56;;;;;;;39.77;17.60;;;;;;;;;;4737969;30;20562;-88
2022/01/14 03:05:02;;;;;;;37.93;16.80;;;;;;;;;;4737981;30;20565;-89
2022/01/14 03:08:06;;;;;;;38.53;16.20;;;;;;;;;;4727500;30;20640;-88
2022/01/14 03:11:14;;;;;;;42.20;16.70;;;;;;;;;;4738606;30;20616;-88
2022/01/14 03:14:24;;;;;;;39.57;16.50;;;;;;;;;;4727838;30;20573;-88
2022/01/14 03:17:28;;;;;;;35.90;16.10;;;;;;;;;;4737770;30;20557;-88
2022/01/14 03:20:50;;;;;;;37.23;16.20;;;;;;;;;;4727571;30;20562;-88
2022/01/14 03:24:05;;;;;;;35.10;16.20;;;;;;;;;;4727800;30;21114;-88
2022/01/14 03:27:10;;;;;;;36.40;15.83;;;;;;;;;;4727402;30;20644;-88
2022/01/14 03:30:14;;;;;;;36.23;16.63;;;;;;;;;;4737583;30;20609;-88
2022/01/14 03:33:20;;;;;;;36.13;15.90;;;;;;;;;;4727360;30;21117;-88
2022/01/14 03:36:26;;;;;;;37.93;17.33;;;;;;;;;;4737603;30;21228;-88
2022/01/14 03:39:30;;;;;;;34.00;15.97;;;;;;;;;;4737550;30;20565;-88
2022/01/14 03:42:34;;;;;;;39.53;16.63;;;;;;;;;;4727474;30;21105;-88
2022/01/14 03:45:39;;;;;;;39.13;17.97;;;;;;;;;;4727242;30;20656;-88
2022/01/14 03:48:43;;;;;;;53.17;17.00;;;;;;;;;;4717382;30;20569;-88
2022/01/14 03:51:47;;;;;;;39.23;16.40;;;;;;;;;;4736763;30;20665;-88
2022/01/14 03:54:51;;;;;;;41.60;18.13;;;;;;;;;;4727149;30;20624;-88
2022/01/14 03:57:55;;;;;;;43.80;17.37;;;;;;;;;;4736934;30;20706;-88
2022/01/14 04:00:59;;;;;;;71.97;17.97;;;;;;;;;;4737240;30;21128;-88
2022/01/14 04:04:03;;;;;;;89.53;20.13;;;;;;;;;;4727050;30;21132;-88
2022/01/14 04:07:07;;;;;;;43.83;18.67;;;;;;;;;;4726538;30;20668;-88
2022/01/14 04:10:13;;;;;;;66.57;19.30;;;;;;;;;;4725772;30;21289;-88
2022/01/14 04:13:22;;;;;;;72.23;18.10;;;;;;;;;;4726310;30;20661;-88
2022/01/14 04:16:27;;;;;;;38.60;16.83;;;;;;;;;;4718831;30;20669;-88
2022/01/14 04:19:31;;;;;;;98.80;19.50;;;;;;;;;;4708972;30;20641;-88
2022/01/14 04:22:36;;;;;;;49.50;21.40;;;;;;;;;;4699139;30;20582;-88
2022/01/14 04:25:41;;;;;;;45.57;19.70;;;;;;;;;;4716175;30;20649;-88
2022/01/14 04:28:48;;;;;;;41.93;19.17;;;;;;;;;;4725919;30;20585;-88
2022/01/14 04:31:52;;;;;;;43.30;17.17;;;;;;;;;;4717848;30;21074;-88
2022/01/14 04:34:56;;;;;;;41.87;17.30;;;;;;;;;;4718658;30;20715;-88
2022/01/14 04:38:00;;;;;;;46.50;17.67;;;;;;;;;;4708651;30;20582;-89
2022/01/14 04:41:04;;;;;;;44.83;17.90;;;;;;;;;;4711607;30;21006;-90
2022/01/14 04:44:08;;;;;;;64.63;18.23;;;;;;;;;;4715768;30;20581;-90
2022/01/14 04:47:16;;;;;;;46.47;18.13;;;;;;;;;;4716185;30;20644;-90
2022/01/14 04:50:22;;;;;;;78.17;19.83;;;;;;;;;;4716124;30;20605;-90
2022/01/14 04:53:27;;;;;;;43.67;18.30;;;;;;;;;;4715965;30;20628;-90
2022/01/14 04:56:34;;;;;;;41.40;17.90;;;;;;;;;;4715878;30;20668;-90
2022/01/14 04:59:38;;;;;;;42.50;18.03;;;;;;;;;;4715854;30;20633;-90
2022/01/14 05:02:43;;;;;;;37.10;17.43;;;;;;;;;;4716185;30;20907;-90
2022/01/14 05:05:50;;;;;;;43.83;17.70;;;;;;;;;;4715787;30;20652;-90
2022/01/14 05:08:55;;;;;;;46.53;18.97;;;;;;;;;;4715457;30;20640;-90
2022/01/14 05:12:06;;;;;;;41.53;17.10;;;;;;;;;;4715591;30;20609;-90
2022/01/14 05:15:14;;;;;;;43.87;18.40;;;;;;;;;;4715795;30;20574;-90
2022/01/14 05:18:18;;;;;;;39.70;16.60;;;;;;;;;;4715695;30;20630;-90
2022/01/14 05:21:22;;;;;;;39.27;17.53;;;;;;;;;;4715531;30;20915;-90
2022/01/14 05:24:26;;;;;;;38.60;16.73;;;;;;;;;;4725532;30;20565;-90
2022/01/14 05:27:30;;;;;;;35.80;17.13;;;;;;;;;;4715548;30;20565;-89
2022/01/14 05:31:00;;;;;;;35.83;16.47;;;;;;;;;;4715582;30;20617;-88
2022/01/14 05:34:04;;;;;;;36.73;16.90;;;;;;;;;;4715423;30;20566;-88
2022/01/14 05:37:09;;;;;;;42.63;17.73;;;;;;;;;;4715147;30;20656;-88
2022/01/14 05:40:15;;;;;;;42.17;18.57;;;;;;;;;;4715536;30;20629;-88
2022/01/14 05:43:19;;;;;;;37.43;17.03;;;;;;;;;;4725014;30;20562;-88
2022/01/14 05:46:23;;;;;;;34.90;16.07;;;;;;;;;;4715327;30;20657;-90
2022/01/14 05:49:29;;;;;;;38.07;16.87;;;;;;;;;;4715193;30;20562;-89
2022/01/14 05:52:33;;;;;;;35.10;16.10;;;;;;;;;;4715277;30;20684;-89
2022/01/14 05:55:37;;;;;;;35.67;16.07;;;;;;;;;;4724984;30;20656;-89
2022/01/14 05:58:41;;;;;;;35.43;15.67;;;;;;;;;;4715062;30;20566;-89
2022/01/14 06:01:46;;;;;;;34.70;16.17;;;;;;;;;;4724825;30;20628;-88
2022/01/14 06:04:51;;;;;;;37.27;15.97;;;;;;;;;;4725803;30;20748;-89
2022/01/14 06:07:55;;;;;;;36.53;16.33;;;;;;;;;;4714750;30;20632;-88
2022/01/14 06:10:59;;;;;;;36.97;16.30;;;;;;;;;;4714728;30;20617;-88
2022/01/14 06:14:03;;;;;;;35.07;15.83;;;;;;;;;;4714891;30;20633;-87
2022/01/14 06:17:07;;;;;;;33.10;16.20;;;;;;;;;;4735013;30;21006;-89
2022/01/14 06:20:12;;;;;;;30.63;16.00;;;;;;;;;;4714464;30;20621;-88
2022/01/14 06:23:16;;;;;;;31.10;15.17;;;;;;;;;;4714807;30;21101;-88
2022/01/14 06:26:20;;;;;;;33.83;15.63;;;;;;;;;;4714691;30;20652;-88
2022/01/14 06:29:24;;;;;;;33.23;15.43;;;;;;;;;;4714690;30;20577;-89
2022/01/14 06:32:28;;;;;;;33.57;16.80;;;;;;;;;;4735466;30;20676;-89
2022/01/14 06:35:32;;;;;;;37.00;18.77;;;;;;;;;;4714718;30;20656;-89
2022/01/14 06:38:37;;;;;;;39.83;18.60;;;;;;;;;;4714317;30;20636;-90
2022/01/14 06:41:41;;;;;;;37.87;18.20;;;;;;;;;;4714469;30;20922;-90
2022/01/14 06:44:45;;;;;;;36.83;17.17;;;;;;;;;;4714626;30;20603;-89
2022/01/14 06:47:50;;;;;;;38.87;17.77;;;;;;;;;;4724477;30;20565;-89
2022/01/14 06:50:55;;;;;;;36.40;18.70;;;;;;;;;;4714473;30;20923;-90
2022/01/14 06:53:59;;;;;;;31.97;16.37;;;;;;;;;;4714580;30;20561;-89
2022/01/14 06:57:04;;;;;;;33.10;15.87;;;;;;;;;;4724714;30;20656;-89
2022/01/14 07:00:11;;;;;;;31.87;15.33;;;;;;;;;;4724353;30;20910;-90
2022/01/14 07:03:15;;;;;;;31.10;15.53;;;;;;;;;;4714286;30;20566;-89
2022/01/14 07:06:19;;;;;;;33.20;14.83;;;;;;;;;;4714406;30;20645;-90
2022/01/14 09:04:03;;;;;;;27.93;15.37;;;;;;;;;;4753745;30;21029;-91
2022/01/14 16:52:27;;;;;;;17.83;10.40;;;;;;;;;;4804878;24;21018;-90
2022/01/14 16:55:32;;;;;;;18.17;9.97;;;;;;;;;;4769221;30;20575;-90
2022/01/14 16:58:36;;;;;;;18.57;10.63;;;;;;;;;;4769158;30;20571;-90
2022/01/14 17:01:44;;;;;;;18.97;10.73;;;;;;;;;;4751232;30;20727;-91
2022/01/14 17:04:50;;;;;;;15.70;10.10;;;;;;;;;;4741372;30;20564;-90
2022/01/14 17:07:54;;;;;;;19.40;12.00;;;;;;;;;;4741053;30;20917;-89
2022/01/14 17:10:59;;;;;;;20.53;11.73;;;;;;;;;;4740648;30;20659;-90
2022/01/14 17:14:04;;;;;;;19.63;11.03;;;;;;;;;;4736537;30;20656;-90
2022/01/14 17:17:08;;;;;;;16.97;10.83;;;;;;;;;;4742619;30;20622;-90
2022/01/14 17:20:13;;;;;;;17.97;11.10;;;;;;;;;;4733051;30;20577;-90
2022/01/14 17:23:19;;;;;;;18.30;10.40;;;;;;;;;;4747826;30;20612;-90
2022/01/14 17:26:24;;;;;;;16.10;10.33;;;;;;;;;;4740814;30;20595;-89
2022/01/14 17:29:29;;;;;;;17.97;9.80;;;;;;;;;;4751147;30;20616;-89
2022/01/14 17:32:33;;;;;;;21.93;11.17;;;;;;;;;;4725447;30;21207;-90
2022/01/14 17:35:38;;;;;;;21.40;12.90;;;;;;;;;;4734766;30;20627;-90
2022/01/14 17:38:43;;;;;;;20.67;11.20;;;;;;;;;;4752797;30;20943;-89
2022/01/14 17:41:49;;;;;;;21.40;11.77;;;;;;;;;;4732737;30;20642;-90
2022/01/14 17:44:55;;;;;;;18.13;10.83;;;;;;;;;;4742843;30;20932;-91
2022/01/14 17:47:59;;;;;;;20.17;11.13;;;;;;;;;;4744538;30;20607;-90
2022/01/14 17:51:04;;;;;;;24.03;12.37;;;;;;;;;;4745091;30;20664;-90
2022/01/14 17:54:08;;;;;;;19.03;12.10;;;;;;;;;;4749872;30;20670;-90
2022/01/14 17:57:13;;;;;;;18.30;11.23;;;;;;;;;;4740399;30;20624;-90
2022/01/14 18:00:19;;;;;;;18.97;11.23;;;;;;;;;;4750047;30;20583;-89
2022/01/14 18:03:26;;;;;;;18.17;11.33;;;;;;;;;;4750266;30;20632;-89
2022/01/14 18:06:31;;;;;;;23.97;13.27;;;;;;;;;;4752600;30;20647;-89
2022/01/14 18:09:35;;;;;;;19.07;11.20;;;;;;;;;;4732387;30;20590;-89
2022/01/14 18:15:59;;;;;;;20.87;12.83;;;;;;;;;;4752480;30;20573;-91
2022/01/14 18:19:04;;;;;;;21.40;11.47;;;;;;;;;;4732834;30;20623;-90
2022/01/14 18:22:09;;;;;;;20.43;11.97;;;;;;;;;;4741113;30;21269;-91
2022/01/14 18:25:14;;;;;;;24.53;13.40;;;;;;;;;;4740088;30;20587;-91
2022/01/14 18:28:18;;;;;;;21.80;14.67;;;;;;;;;;4749908;30;20567;-91
2022/01/14 18:31:23;;;;;;;25.40;15.03;;;;;;;;;;4760397;30;21004;-91
2022/01/14 18:34:27;;;;;;;27.47;15.50;;;;;;;;;;4740266;30;20972;-90
2022/01/14 18:37:31;;;;;;;25.57;15.37;;;;;;;;;;4759738;30;20568;-89
2022/01/14 18:40:35;;;;;;;23.20;14.67;;;;;;;;;;4746535;30;20671;-91
2022/01/14 18:43:46;;;;;;;22.53;13.80;;;;;;;;;;4742483;30;20565;-91
2022/01/14 18:46:50;;;;;;;23.73;14.07;;;;;;;;;;4732171;30;20573;-91
2022/01/14 18:49:54;;;;;;;22.53;13.70;;;;;;;;;;4742571;30;20592;-91
2022/01/14 18:52:58;;;;;;;23.33;13.50;;;;;;;;;;4742458;30;20909;-92
2022/01/14 18:56:03;;;;;;;24.07;13.37;;;;;;;;;;4732651;30;20818;-91
2022/01/14 18:59:07;;;;;;;22.97;13.47;;;;;;;;;;4722214;30;20631;-91
2022/01/14 19:02:11;;;;;;;20.63;12.07;;;;;;;;;;4742260;30;20668;-90
2022/01/14 19:05:19;;;;;;;24.37;12.57;;;;;;;;;;4742018;30;20611;-88
2022/01/14 19:08:23;;;;;;;20.97;12.40;;;;;;;;;;4742019;30;20596;-90
2022/01/14 19:11:31;;;;;;;21.43;12.43;;;;;;;;;;4732105;30;20647;-90
2022/01/14 19:14:35;;;;;;;23.73;14.30;;;;;;;;;;4722157;30;20616;-90
2022/01/14 19:17:42;;;;;;;21.50;13.33;;;;;;;;;;4741964;30;20569;-89
2022/01/14 19:20:46;;;;;;;20.07;12.40;;;;;;;;;;4736923;30;20666;-91
2022/01/14 19:23:53;;;;;;;23.07;13.20;;;;;;;;;;4740112;30;20599;-92
2022/01/14 19:27:01;;;;;;;23.47;14.53;;;;;;;;;;4750860;30;20587;-90
2022/01/14 19:30:06;;;;;;;27.67;15.80;;;;;;;;;;4750398;30;20587;-89
2022/01/14 19:33:10;;;;;;;22.30;13.27;;;;;;;;;;4750285;30;20587;-89
2022/01/14 19:36:15;;;;;;;24.87;14.03;;;;;;;;;;4750359;30;20696;-88
2022/01/14 19:39:20;;;;;;;23.13;13.70;;;;;;;;;;4749971;30;20579;-91
2022/01/14 19:42:38;;;;;;;23.77;13.53;;;;;;;;;;4752791;30;20639;-90
2022/01/14 19:45:43;;;;;;;25.10;14.30;;;;;;;;;;4742408;30;20575;-90
2022/01/14 19:48:51;;;;;;;29.60;15.83;;;;;;;;;;4752726;30;20582;-92
2022/01/14 19:51:55;;;;;;;27.90;15.80;;;;;;;;;;4752622;30;21253;-90
2022/01/14 19:55:03;;;;;;;26.90;15.33;;;;;;;;;;4739125;30;20683;-90
2022/01/14 19:58:08;;;;;;;29.57;14.90;;;;;;;;;;4735021;30;20666;-89
2022/01/14 20:01:16;;;;;;;25.83;14.57;;;;;;;;;;4734860;30;20657;-90
2022/01/14 20:04:20;;;;;;;28.00;15.37;;;;;;;;;;4734366;30;20938;-89
2022/01/14 20:07:24;;;;;;;23.87;14.33;;;;;;;;;;4744577;30;20616;-89
2022/01/14 20:10:30;;;;;;;29.40;15.77;;;;;;;;;;4724545;30;20619;-90
2022/01/14 20:13:35;;;;;;;32.33;16.40;;;;;;;;;;4724284;30;20942;-89
2022/01/14 20:16:42;;;;;;;26.77;15.10;;;;;;;;;;4734197;30;20585;-90
2022/01/14 20:19:46;;;;;;;27.67;14.77;;;;;;;;;;4724306;30;20569;-90
2022/01/14 20:22:50;;;;;;;26.87;15.47;;;;;;;;;;4724160;30;20918;-89
2022/01/14 20:25:55;;;;;;;24.83;14.43;;;;;;;;;;4733910;30;21221;-91
2022/01/14 20:28:59;;;;;;;29.47;14.47;;;;;;;;;;4733843;30;20950;-90
2022/01/14 20:32:04;;;;;;;25.60;14.40;;;;;;;;;;4724378;30;20657;-89
2022/01/14 20:35:09;;;;;;;25.27;14.90;;;;;;;;;;4734195;30;20628;-90
2022/01/14 20:38:13;;;;;;;27.97;14.93;;;;;;;;;;4723986;30;21140;-90
2022/01/14 20:41:18;;;;;;;28.03;15.80;;;;;;;;;;4724474;30;21215;-90
2022/01/14 20:44:31;;;;;;;27.37;15.10;;;;;;;;;;4725170;30;20929;-89
2022/01/14 20:47:35;;;;;;;24.73;14.30;;;;;;;;;;4744344;30;20560;-89
2022/01/14 20:50:40;;;;;;;31.97;17.17;;;;;;;;;;4723910;30;20659;-89
2022/01/14 20:53:44;;;;;;;27.43;16.13;;;;;;;;;;4723366;30;20564;-90
2022/01/14 20:56:49;;;;;;;26.90;14.93;;;;;;;;;;4736878;30;20552;-88
2022/01/14 20:59:53;;;;;;;24.33;14.33;;;;;;;;;;4731431;30;20902;-89
2022/01/14 21:02:57;;;;;;;24.57;14.77;;;;;;;;;;4723650;30;20598;-90
2022/01/14 21:06:01;;;;;;;27.07;15.00;;;;;;;;;;4733726;30;20553;-92
2022/01/14 21:09:07;;;;;;;25.37;14.57;;;;;;;;;;4735603;30;20672;-90
2022/01/14 21:12:11;;;;;;;27.03;15.53;;;;;;;;;;4750744;30;20655;-89
2022/01/14 21:15:15;;;;;;;28.17;14.67;;;;;;;;;;4740902;30;20636;-91
2022/01/14 21:18:19;;;;;;;28.83;15.93;;;;;;;;;;4740819;30;20567;-90
2022/01/14 21:21:24;;;;;;;27.73;15.03;;;;;;;;;;4761124;30;20635;-90
2022/01/14 21:24:28;;;;;;;31.60;17.57;;;;;;;;;;4740584;30;20664;-90
2022/01/14 21:27:32;;;;;;;30.83;17.37;;;;;;;;;;4760948;30;20560;-90
2022/01/14 21:30:36;;;;;;;35.37;20.67;;;;;;;;;;4740889;30;20635;-91
2022/01/14 21:33:40;;;;;;;27.87;15.97;;;;;;;;;;4740864;30;20576;-89
2022/01/14 21:36:44;;;;;;;33.70;19.00;;;;;;;;;;4750792;30;20611;-91
2022/01/14 21:39:48;;;;;;;32.10;17.30;;;;;;;;;;4723398;30;20917;-90
2022/01/14 21:42:52;;;;;;;33.67;16.40;;;;;;;;;;4743094;30;20938;-91
2022/01/14 21:45:58;;;;;;;30.07;16.30;;;;;;;;;;4733605;30;20560;-89
2022/01/14 21:49:03;;;;;;;29.37;16.17;;;;;;;;;;4725256;30;20619;-89
2022/01/14 21:52:07;;;;;;;30.10;17.00;;;;;;;;;;4722491;30;20660;-90
2022/01/14 21:55:16;;;;;;;29.53;15.80;;;;;;;;;;4732944;30;20616;-90
2022/01/14 21:58:22;;;;;;;30.93;16.43;;;;;;;;;;4743221;30;21156;-89
2022/01/14 22:01:27;;;;;;;28.73;16.53;;;;;;;;;;4736649;30;20674;-90
2022/01/14 22:04:31;;;;;;;30.27;16.97;;;;;;;;;;4739467;30;20583;-91
2022/01/14 22:07:35;;;;;;;27.33;16.67;;;;;;;;;;4750759;30;20564;-91
2022/01/14 22:10:38;;;;;;;33.20;17.80;;;;;;;;;;4740048;30;20647;-89
2022/01/14 22:13:48;;;;;;;27.80;15.83;;;;;;;;;;4740122;30;20711;-90
2022/01/14 22:16:53;;;;;;;29.90;17.27;;;;;;;;;;4739761;30;21323;-90
2022/01/14 22:19:57;;;;;;;32.90;16.50;;;;;;;;;;4751024;30;20556;-89
2022/01/14 22:23:07;;;;;;;29.27;15.83;;;;;;;;;;4739789;30;20617;-89
2022/01/14 22:26:12;;;;;;;28.23;15.63;;;;;;;;;;4741370;30;20580;-90
2022/01/14 22:29:17;;;;;;;27.43;16.37;;;;;;;;;;4740060;30;20619;-90
2022/01/14 22:32:21;;;;;;;29.23;15.57;;;;;;;;;;4750043;30;20646;-89
2022/01/14 22:35:25;;;;;;;33.87;17.33;;;;;;;;;;4750250;30;20608;-89
2022/01/14 22:38:31;;;;;;;29.37;16.07;;;;;;;;;;4760263;30;20921;-89
2022/01/14 22:41:35;;;;;;;30.67;15.77;;;;;;;;;;4739718;30;20666;-90
2022/01/14 22:44:40;;;;;;;25.93;14.90;;;;;;;;;;4748918;30;20643;-90
2022/01/14 22:47:44;;;;;;;26.90;15.13;;;;;;;;;;4732542;30;21010;-89
2022/01/14 22:54:57;;;;;;;28.50;16.10;;;;;;;;;;646268;24;22364;-88
2022/01/14 22:58:03;;;;;;;29.37;15.47;;;;;;;;;;4720825;30;20644;-92
2022/01/14 23:01:13;;;;;;;27.30;15.43;;;;;;;;;;4732696;30;20993;-91
2022/01/14 23:04:20;;;;;;;26.40;14.57;;;;;;;;;;4733551;30;20569;-89
2022/01/14 23:07:25;;;;;;;25.47;14.77;;;;;;;;;;4747979;30;20560;-91
2022/01/14 23:10:33;;;;;;;25.60;16.10;;;;;;;;;;4732425;30;20624;-89
2022/01/14 23:13:41;;;;;;;28.03;14.80;;;;;;;;;;4742027;30;20622;-91
2022/01/14 23:16:46;;;;;;;27.67;14.77;;;;;;;;;;4745596;30;21044;-90
2022/01/14 23:20:21;;;;;;;28.60;14.80;;;;;;;;;;4735758;30;20570;-89
2022/01/14 23:23:26;;;;;;;26.30;15.27;;;;;;;;;;4745306;30;20583;-89
2022/01/14 23:30:56;;;;;;;31.93;16.43;;;;;;;;;;4735472;30;20628;-90
2022/01/14 23:38:51;;;;;;;25.57;13.83;;;;;;;;;;4757253;30;20584;-90
2022/01/14 23:41:57;;;;;;;31.30;16.20;;;;;;;;;;4742924;25;20699;-90
2022/01/14 23:48:22;;;;;;;27.40;15.43;;;;;;;;;;4746895;30;20561;-91
2022/01/14 23:51:28;;;;;;;28.97;15.67;;;;;;;;;;4762597;24;21063;-90
2022/01/14 23:54:33;;;;;;;31.57;16.90;;;;;;;;;;4760326;30;20618;-89
2022/01/14 23:57:37;;;;;;;32.40;16.53;;;;;;;;;;4760276;30;20669;-90
